Time;durP1;ratioP1;P1;durP2;ratioP2;P2;SDS_P1;SDS_P2;PMS_P1;PMS_P2;Temp;Humidity;BMP_temperature;BMP_pressure;BME280_temperature;BME280_humidity;BME280_pressure;Samples;Min_cycle;Max_cycle;Signal;HPM_P1;HPM_P2
2022/03/06 00:02:11;;;;;;;19.75;9.60;;;4.80;41.50;;;;;;5035811;28;20029;-22
2022/03/06 00:04:37;;;;;;;13.57;6.93;;;4.80;41.60;;;;;;5035819;28;20041;-23
2022/03/06 00:07:03;;;;;;;29.98;14.75;;;4.80;41.40;;;;;;5034360;28;20116;-23
2022/03/06 00:09:29;;;;;;;29.40;15.77;;;4.70;42.10;;;;;;5035743;28;20033;-22
2022/03/06 00:11:55;;;;;;;20.15;10.00;;;4.80;42.50;;;;;;5036033;28;20377;-21
2022/03/06 00:14:21;;;;;;;22.55;11.40;;;4.70;42.30;;;;;;5035277;28;20025;-21
2022/03/06 00:16:48;;;;;;;22.77;12.15;;;4.70;42.50;;;;;;5034553;28;20030;-21
2022/03/06 00:19:14;;;;;;;24.88;13.88;;;4.70;43.70;;;;;;5035180;28;20505;-21
2022/03/06 00:21:40;;;;;;;23.08;12.07;;;4.70;43.30;;;;;;5035561;28;20041;-21
2022/03/06 00:24:07;;;;;;;19.55;10.73;;;4.60;43.70;;;;;;5035577;28;20033;-21
2022/03/06 00:26:34;;;;;;;29.10;14.98;;;4.60;43.50;;;;;;5035637;28;20021;-21
2022/03/06 00:29:00;;;;;;;26.00;12.20;;;4.60;44.30;;;;;;5035132;28;20099;-21
2022/03/06 00:31:26;;;;;;;23.38;12.07;;;4.50;43.90;;;;;;5033962;28;20026;-23
2022/03/06 00:33:52;;;;;;;21.70;10.93;;;4.50;43.70;;;;;;5035411;28;20370;-22
2022/03/06 00:36:19;;;;;;;26.42;11.85;;;4.50;43.10;;;;;;5035227;28;20025;-21
2022/03/06 00:38:46;;;;;;;39.78;20.00;;;4.50;43.40;;;;;;5034926;28;20025;-21
2022/03/06 00:41:13;;;;;;;31.02;15.73;;;4.40;43.80;;;;;;5035167;28;20030;-23
2022/03/06 00:43:40;;;;;;;23.02;12.63;;;4.40;45.50;;;;;;5034865;28;20033;-22
2022/03/06 00:46:07;;;;;;;25.45;12.77;;;4.40;44.40;;;;;;5034861;28;20084;-23
2022/03/06 00:48:33;;;;;;;19.00;10.50;;;4.40;43.50;;;;;;5035238;28;20033;-21
2022/03/06 00:50:59;;;;;;;16.92;9.45;;;4.40;44.00;;;;;;5035102;28;20096;-22
2022/03/06 00:53:25;;;;;;;27.63;14.80;;;4.40;44.00;;;;;;5034760;28;20033;-23
2022/03/06 00:55:51;;;;;;;25.70;13.13;;;4.30;44.70;;;;;;5034820;28;20030;-21
2022/03/06 00:58:18;;;;;;;22.77;11.93;;;4.30;45.20;;;;;;5034638;28;20036;-23
2022/03/06 01:00:47;;;;;;;32.83;18.50;;;4.20;44.80;;;;;;5034160;28;20033;-22
2022/03/06 01:03:19;;;;;;;23.17;12.20;;;4.20;45.40;;;;;;5034842;28;20095;-22
2022/03/06 01:05:45;;;;;;;24.88;12.40;;;4.20;45.00;;;;;;5034866;28;20053;-22
2022/03/06 01:08:12;;;;;;;24.50;12.00;;;4.20;45.30;;;;;;5034512;28;20051;-22
2022/03/06 01:10:40;;;;;;;29.73;16.10;;;4.20;45.20;;;;;;5034439;28;20379;-22
2022/03/06 01:13:08;;;;;;;25.52;14.00;;;4.20;46.80;;;;;;5034712;28;20095;-23
2022/03/06 01:15:35;;;;;;;26.33;13.13;;;4.10;47.00;;;;;;5034490;28;20029;-21
2022/03/06 01:18:01;;;;;;;21.13;11.63;;;4.10;45.60;;;;;;5034004;28;20060;-21
2022/03/06 01:20:27;;;;;;;17.38;9.63;;;4.10;45.10;;;;;;5033899;28;20053;-23
2022/03/06 01:22:54;;;;;;;12.43;7.25;;;4.10;44.80;;;;;;5034575;28;20068;-23
2022/03/06 01:25:21;;;;;;;16.70;7.97;;;4.20;44.30;;;;;;5034408;28;20026;-23
2022/03/06 01:27:48;;;;;;;25.00;13.48;;;4.20;44.60;;;;;;5033977;28;20057;-22
2022/03/06 01:30:21;;;;;;;10.98;5.60;;;4.20;44.40;;;;;;5034141;28;20021;-22
2022/03/06 01:32:48;;;;;;;11.75;5.97;;;4.20;44.00;;;;;;5034368;28;20022;-21
2022/03/06 01:35:14;;;;;;;14.15;6.72;;;4.20;44.20;;;;;;5034540;28;20040;-21
2022/03/06 01:37:40;;;;;;;21.83;11.18;;;4.20;44.30;;;;;;5033833;28;20482;-22
2022/03/06 01:40:08;;;;;;;16.45;8.10;;;4.30;44.20;;;;;;5033755;28;20470;-21
2022/03/06 01:42:38;;;;;;;19.63;11.02;;;4.20;44.30;;;;;;5033718;28;20037;-21
2022/03/06 01:45:06;;;;;;;10.40;5.55;;;4.30;44.10;;;;;;5033773;28;20379;-23
2022/03/06 01:47:42;;;;;;;12.57;6.97;;;4.30;44.00;;;;;;5033669;28;20031;-21
2022/03/06 01:50:23;;;;;;;12.25;6.63;;;4.30;43.70;;;;;;5033768;28;20025;-21
2022/03/06 01:52:51;;;;;;;14.15;7.40;;;4.30;43.60;;;;;;5033980;28;20028;-21
2022/03/06 01:55:19;;;;;;;14.68;6.57;;;4.30;43.70;;;;;;5034087;28;20028;-22
2022/03/06 01:57:46;;;;;;;14.25;6.57;;;4.40;44.50;;;;;;5033769;28;20048;-21
2022/03/06 02:00:19;;;;;;;12.15;5.40;;;4.40;44.20;;;;;;5033369;28;20034;-23
2022/03/06 02:02:46;;;;;;;9.15;4.82;;;4.40;43.70;;;;;;5033860;28;20017;-20
2022/03/06 02:05:12;;;;;;;12.38;6.15;;;4.40;43.30;;;;;;5033653;28;20045;-21
2022/03/06 02:07:38;;;;;;;11.30;5.70;;;4.40;43.60;;;;;;5033549;28;20033;-21
2022/03/06 02:10:06;;;;;;;13.82;6.93;;;4.40;43.40;;;;;;5033495;28;20029;-21
2022/03/06 02:12:33;;;;;;;9.77;4.85;;;4.40;43.90;;;;;;5032392;28;20029;-22
2022/03/06 02:15:02;;;;;;;13.25;5.80;;;4.40;43.50;;;;;;5033694;28;20438;-21
2022/03/06 02:17:28;;;;;;;19.27;8.23;;;4.40;43.30;;;;;;5032985;28;20412;-21
2022/03/06 02:19:55;;;;;;;11.07;5.45;;;4.40;43.80;;;;;;5033224;28;20029;-22
2022/03/06 02:22:30;;;;;;;9.73;5.15;;;4.40;43.40;;;;;;5033020;28;20534;-22
2022/03/06 02:24:58;;;;;;;15.85;7.57;;;4.40;43.30;;;;;;5033540;28;20026;-22
2022/03/06 02:27:25;;;;;;;11.13;5.65;;;4.40;43.00;;;;;;5033234;28;20026;-22
2022/03/06 02:29:51;;;;;;;13.52;5.65;;;4.40;43.50;;;;;;5033461;28;20057;-22
2022/03/06 02:32:20;;;;;;;19.98;11.40;;;4.30;43.20;;;;;;5032969;28;20053;-20
2022/03/06 02:34:47;;;;;;;14.05;6.68;;;4.40;43.10;;;;;;5033002;28;20409;-20
2022/03/06 02:37:14;;;;;;;10.55;5.32;;;4.30;43.40;;;;;;5033384;28;20064;-22
2022/03/06 02:39:43;;;;;;;10.48;5.20;;;4.30;43.30;;;;;;5032913;28;20064;-23
2022/03/06 02:42:10;;;;;;;9.80;5.00;;;4.30;43.50;;;;;;5031729;28;20068;-22
2022/03/06 02:44:37;;;;;;;10.23;4.88;;;4.20;43.40;;;;;;5032796;28;20577;-23
2022/03/06 02:47:04;;;;;;;6.95;3.50;;;4.20;43.40;;;;;;5032968;28;20060;-22
2022/03/06 02:49:30;;;;;;;7.38;3.88;;;4.20;43.30;;;;;;5032963;28;20473;-23
2022/03/06 02:51:56;;;;;;;6.90;3.67;;;4.20;43.30;;;;;;5032891;28;20017;-22
2022/03/06 02:54:22;;;;;;;8.75;4.90;;;4.20;43.40;;;;;;5032692;28;20116;-23
2022/03/06 02:56:48;;;;;;;11.88;6.93;;;4.10;43.20;;;;;;5032868;28;20130;-23
2022/03/06 02:59:15;;;;;;;10.00;4.95;;;4.10;43.80;;;;;;5033036;28;20026;-22
2022/03/06 03:01:42;;;;;;;17.05;8.75;;;4.00;43.60;;;;;;5031553;28;20041;-21
2022/03/06 03:04:09;;;;;;;14.60;7.85;;;4.00;44.10;;;;;;5033080;28;20108;-21
2022/03/06 03:06:36;;;;;;;11.85;5.80;;;4.00;44.10;;;;;;5032896;28;20030;-23
2022/03/06 03:09:06;;;;;;;13.90;7.63;;;3.90;43.80;;;;;;5031565;28;20021;-22
2022/03/06 03:11:34;;;;;;;10.43;5.40;;;3.90;43.80;;;;;;5033029;28;20180;-21
2022/03/06 03:14:02;;;;;;;7.93;4.35;;;3.90;43.80;;;;;;5032902;28;20082;-23
2022/03/06 03:16:29;;;;;;;16.92;8.75;;;3.90;43.70;;;;;;5032505;28;20018;-21
2022/03/06 03:18:55;;;;;;;12.60;7.00;;;3.90;44.00;;;;;;5032451;28;20060;-21
2022/03/06 03:21:21;;;;;;;9.85;4.63;;;3.90;44.00;;;;;;5032590;28;20038;-23
2022/03/06 03:23:47;;;;;;;13.55;6.68;;;3.90;43.90;;;;;;5035689;28;20025;-22
2022/03/06 03:26:13;;;;;;;12.93;6.53;;;3.90;43.80;;;;;;5036445;28;20112;-22
2022/03/06 03:28:39;;;;;;;10.82;5.30;;;3.80;43.80;;;;;;5036493;28;20413;-23
2022/03/06 03:31:05;;;;;;;9.68;5.10;;;3.80;44.00;;;;;;5036274;28;20036;-23
2022/03/06 03:33:31;;;;;;;11.23;6.00;;;3.80;43.80;;;;;;5035085;28;20117;-21
2022/03/06 03:35:57;;;;;;;10.52;5.43;;;3.80;43.90;;;;;;5036517;28;20448;-21
2022/03/06 03:38:23;;;;;;;14.00;7.32;;;3.70;44.20;;;;;;5036072;28;20023;-23
2022/03/06 03:40:49;;;;;;;11.77;5.65;;;3.70;44.20;;;;;;5036035;28;20026;-21
2022/03/06 03:43:15;;;;;;;8.38;4.10;;;3.70;44.20;;;;;;5035986;28;20041;-23
2022/03/06 03:45:41;;;;;;;13.00;6.28;;;3.70;43.90;;;;;;5036188;28;20032;-21
2022/03/06 03:48:07;;;;;;;13.50;6.88;;;3.60;44.20;;;;;;5035975;28;20025;-22
2022/03/06 03:50:33;;;;;;;17.42;7.53;;;3.60;44.30;;;;;;5035694;28;20025;-23
2022/03/06 03:52:59;;;;;;;8.40;4.25;;;3.60;44.30;;;;;;5036518;28;20029;-23
2022/03/06 03:55:24;;;;;;;8.20;3.88;;;3.60;44.10;;;;;;5036308;28;20431;-22
2022/03/06 03:57:50;;;;;;;7.88;3.83;;;3.50;44.00;;;;;;5035719;28;20064;-21
2022/03/06 04:00:16;;;;;;;10.75;5.75;;;3.60;43.90;;;;;;5035818;28;20041;-22
2022/03/06 04:02:42;;;;;;;15.23;6.40;;;3.50;44.00;;;;;;5035924;28;20026;-21
2022/03/06 04:05:09;;;;;;;8.90;4.80;;;3.50;44.40;;;;;;5034455;28;20047;-23
2022/03/06 04:07:35;;;;;;;12.15;6.22;;;3.50;44.10;;;;;;5035928;28;20079;-22
2022/03/06 04:10:01;;;;;;;9.02;4.60;;;3.40;44.10;;;;;;5035566;28;20033;-23
2022/03/06 04:12:27;;;;;;;8.65;4.32;;;3.40;43.90;;;;;;5035373;28;20029;-23
2022/03/06 04:14:53;;;;;;;8.23;3.83;;;3.40;43.90;;;;;;5035772;28;20036;-21
2022/03/06 04:17:19;;;;;;;5.65;3.08;;;3.40;43.80;;;;;;5035469;28;20033;-21
2022/03/06 04:19:44;;;;;;;6.70;3.30;;;3.30;43.70;;;;;;5035792;28;20017;-23
2022/03/06 04:22:10;;;;;;;7.95;3.83;;;3.30;43.70;;;;;;5035754;28;20420;-22
2022/03/06 04:24:36;;;;;;;5.72;2.90;;;3.30;43.70;;;;;;5035299;28;20026;-23
2022/03/06 04:27:03;;;;;;;9.75;5.18;;;3.30;43.70;;;;;;5035104;28;20423;-23
2022/03/06 04:29:30;;;;;;;10.00;4.60;;;3.20;43.60;;;;;;5035330;28;20026;-21
2022/03/06 04:31:56;;;;;;;10.13;5.30;;;3.20;44.10;;;;;;5035464;28;20026;-21
2022/03/06 04:34:22;;;;;;;11.75;4.95;;;3.10;44.20;;;;;;5034196;28;20508;-24
2022/03/06 04:36:49;;;;;;;6.57;3.30;;;3.10;44.00;;;;;;5035433;28;20036;-23
2022/03/06 04:39:15;;;;;;;8.27;4.60;;;3.00;44.10;;;;;;5034197;28;20075;-23
2022/03/06 04:41:41;;;;;;;10.18;4.72;;;2.90;44.00;;;;;;5035239;28;20069;-22
2022/03/06 04:44:06;;;;;;;8.02;3.35;;;2.90;44.40;;;;;;5035034;28;20412;-23
2022/03/06 04:46:32;;;;;;;6.55;3.47;;;2.90;44.20;;;;;;5034837;28;20431;-22
2022/03/06 04:48:59;;;;;;;9.63;4.45;;;2.80;44.10;;;;;;5035447;28;20022;-21
2022/03/06 04:51:25;;;;;;;11.20;5.22;;;2.80;44.40;;;;;;5034816;28;20520;-23
2022/03/06 04:53:51;;;;;;;11.95;6.22;;;2.70;44.50;;;;;;5034748;28;20057;-23
2022/03/06 04:56:17;;;;;;;8.98;4.35;;;2.70;44.50;;;;;;5034818;28;20068;-21
2022/03/06 04:58:43;;;;;;;8.02;4.07;;;2.60;44.40;;;;;;5034701;28;20018;-22
2022/03/06 05:01:09;;;;;;;5.55;3.13;;;2.60;44.40;;;;;;5034815;28;20029;-22
2022/03/06 05:03:35;;;;;;;10.75;4.30;;;2.60;44.20;;;;;;5034525;28;20029;-23
2022/03/06 05:06:00;;;;;;;8.45;4.07;;;2.60;44.50;;;;;;5034813;28;20083;-23
2022/03/06 05:08:27;;;;;;;9.93;4.63;;;2.60;44.20;;;;;;5034327;28;20029;-21
2022/03/06 05:10:54;;;;;;;8.27;4.47;;;2.60;44.20;;;;;;5034424;28;20108;-21
2022/03/06 05:13:22;;;;;;;9.90;4.60;;;2.60;44.20;;;;;;5034269;28;20570;-22
2022/03/06 05:15:48;;;;;;;13.15;6.70;;;2.60;44.30;;;;;;5034562;28;20108;-22
2022/03/06 05:18:14;;;;;;;7.00;3.85;;;2.60;44.60;;;;;;5033989;28;20080;-22
2022/03/06 05:20:40;;;;;;;8.57;4.30;;;2.60;44.40;;;;;;5034207;28;20036;-23
2022/03/06 05:23:06;;;;;;;12.40;5.32;;;2.60;44.40;;;;;;5034404;28;20025;-22
2022/03/06 05:25:33;;;;;;;11.15;5.20;;;2.60;44.30;;;;;;5034462;28;20048;-23
2022/03/06 05:27:59;;;;;;;10.57;5.05;;;2.70;44.20;;;;;;5034260;28;20512;-22
2022/03/06 05:30:24;;;;;;;9.77;4.78;;;2.70;44.10;;;;;;5033933;28;20029;-22
2022/03/06 05:32:50;;;;;;;7.82;3.67;;;2.70;44.60;;;;;;5033966;28;20025;-22
2022/03/06 05:35:16;;;;;;;7.63;3.53;;;2.70;44.30;;;;;;5033939;28;20037;-22
2022/03/06 05:37:42;;;;;;;11.80;5.90;;;2.70;44.10;;;;;;5033964;28;20053;-22
2022/03/06 05:40:09;;;;;;;8.98;4.70;;;2.70;44.10;;;;;;5033751;28;20029;-21
2022/03/06 05:42:35;;;;;;;11.52;6.03;;;2.70;44.10;;;;;;5034026;28;20052;-21
2022/03/06 05:45:01;;;;;;;10.00;5.15;;;2.70;44.50;;;;;;5033937;28;20037;-23
2022/03/06 05:47:27;;;;;;;6.55;3.17;;;2.70;44.60;;;;;;5032926;28;20113;-22
2022/03/06 05:49:53;;;;;;;12.43;6.60;;;2.70;44.20;;;;;;5033728;28;20116;-22
2022/03/06 05:52:19;;;;;;;15.00;7.00;;;2.70;44.90;;;;;;5033644;28;20104;-24
2022/03/06 05:54:45;;;;;;;10.88;5.20;;;2.70;44.70;;;;;;5033633;28;20382;-23
2022/03/06 05:57:11;;;;;;;13.13;6.57;;;2.70;44.40;;;;;;5033705;28;20039;-22
2022/03/06 05:59:37;;;;;;;13.90;7.20;;;2.70;45.10;;;;;;5033498;28;20030;-23
2022/03/06 06:02:03;;;;;;;12.55;6.88;;;2.70;45.10;;;;;;5033471;28;20036;-23
2022/03/06 06:04:29;;;;;;;11.18;4.88;;;2.70;45.40;;;;;;5033630;28;20018;-23
2022/03/06 06:06:55;;;;;;;13.95;6.65;;;2.70;45.00;;;;;;5034069;28;20033;-22
2022/03/06 06:09:21;;;;;;;16.85;7.72;;;2.80;44.90;;;;;;5033392;28;20075;-23
2022/03/06 06:11:47;;;;;;;11.57;5.05;;;2.80;45.00;;;;;;5034010;28;20017;-23
2022/03/06 06:14:13;;;;;;;15.60;8.25;;;2.80;45.20;;;;;;5033041;28;20064;-23
2022/03/06 06:16:39;;;;;;;12.98;7.00;;;2.80;45.30;;;;;;5033313;28;20078;-22
2022/03/06 06:19:05;;;;;;;15.75;7.85;;;2.90;45.10;;;;;;5033197;28;20103;-23
2022/03/06 06:21:31;;;;;;;17.55;8.45;;;2.90;45.10;;;;;;5033778;28;20037;-23
2022/03/06 06:23:57;;;;;;;15.13;6.90;;;3.00;45.20;;;;;;5033804;28;20343;-23
2022/03/06 06:26:24;;;;;;;13.35;6.32;;;3.10;44.90;;;;;;5033994;28;20022;-23
2022/03/06 06:28:55;;;;;;;14.73;7.75;;;3.20;44.70;;;;;;5033384;28;20041;-22
2022/03/06 06:31:24;;;;;;;12.27;5.68;;;3.30;45.20;;;;;;5033499;28;20030;-22
2022/03/06 06:33:51;;;;;;;12.43;6.60;;;3.40;44.40;;;;;;5033117;28;20025;-21
2022/03/06 06:36:18;;;;;;;9.18;4.78;;;3.60;44.50;;;;;;5032860;28;20028;-21
2022/03/06 06:38:44;;;;;;;10.40;4.90;;;3.70;44.30;;;;;;5034251;28;20021;-20
2022/03/06 06:41:11;;;;;;;12.77;6.07;;;3.90;44.40;;;;;;5033220;28;20116;-23
2022/03/06 06:43:36;;;;;;;9.75;5.07;;;4.00;44.10;;;;;;5033116;28;20023;-23
2022/03/06 06:46:03;;;;;;;11.73;5.65;;;4.20;44.10;;;;;;5033291;28;20021;-22
2022/03/06 06:48:29;;;;;;;9.05;4.30;;;4.40;43.90;;;;;;5032766;28;20061;-23
2022/03/06 06:50:55;;;;;;;11.38;5.60;;;4.50;43.50;;;;;;5032927;28;20049;-22
2022/03/06 06:53:20;;;;;;;14.73;7.18;;;4.70;43.50;;;;;;5032822;28;20092;-22
2022/03/06 06:55:46;;;;;;;10.80;5.40;;;4.90;43.70;;;;;;5033206;28;20030;-22
2022/03/06 06:58:12;;;;;;;12.73;6.68;;;5.00;43.10;;;;;;5035030;28;20401;-22
2022/03/06 07:00:38;;;;;;;12.18;5.68;;;5.10;43.10;;;;;;5037126;28;20124;-23
2022/03/06 07:03:04;;;;;;;12.48;6.80;;;5.20;43.20;;;;;;5037035;28;20465;-23
2022/03/06 07:05:30;;;;;;;10.05;5.05;;;5.40;43.50;;;;;;5037057;28;20112;-22
2022/03/06 07:07:56;;;;;;;8.55;4.53;;;5.40;43.20;;;;;;5036923;28;20537;-22
2022/03/06 07:10:22;;;;;;;11.07;5.75;;;5.50;43.30;;;;;;5019001;28;20156;-22
2022/03/06 07:12:53;;;;;;;12.82;6.22;;;5.60;43.40;;;;;;5037025;28;20021;-21
2022/03/06 07:15:20;;;;;;;18.15;9.23;;;5.70;43.00;;;;;;5036623;28;20026;-21
2022/03/06 07:17:46;;;;;;;11.55;6.28;;;5.80;43.00;;;;;;5036503;28;20057;-23
2022/03/06 07:20:12;;;;;;;14.75;8.10;;;5.90;42.90;;;;;;5036214;28;20367;-22
2022/03/06 07:22:38;;;;;;;16.05;8.18;;;6.00;42.90;;;;;;5036766;28;20048;-23
2022/03/06 07:25:05;;;;;;;12.02;6.05;;;6.10;42.70;;;;;;5036847;28;20110;-23
2022/03/06 07:27:31;;;;;;;12.43;6.55;;;6.20;42.70;;;;;;5036579;28;20056;-22
2022/03/06 07:29:58;;;;;;;9.80;5.18;;;6.30;42.70;;;;;;5036400;28;20034;-23
2022/03/06 07:32:24;;;;;;;9.27;5.00;;;6.30;42.60;;;;;;5036656;28;20461;-23
2022/03/06 07:34:51;;;;;;;12.85;6.53;;;6.40;42.70;;;;;;5036551;28;20029;-21
2022/03/06 07:37:18;;;;;;;15.98;7.93;;;6.50;42.60;;;;;;5036166;28;20040;-23
2022/03/06 07:39:44;;;;;;;12.75;5.68;;;6.60;43.00;;;;;;5036168;28;20026;-23
2022/03/06 07:42:10;;;;;;;13.18;6.82;;;6.80;42.70;;;;;;5036401;28;20029;-21
2022/03/06 07:44:36;;;;;;;14.70;8.20;;;6.90;42.60;;;;;;5035859;28;20029;-22
2022/03/06 07:47:02;;;;;;;16.58;8.70;;;6.90;42.50;;;;;;5035994;28;20109;-23
2022/03/06 07:49:28;;;;;;;18.67;9.27;;;7.00;42.60;;;;;;5036293;28;20140;-22
2022/03/06 07:51:54;;;;;;;14.52;7.93;;;7.10;42.80;;;;;;5036215;28;20101;-23
2022/03/06 07:54:20;;;;;;;15.85;8.43;;;7.20;42.10;;;;;;5035782;28;20029;-23
2022/03/06 07:56:46;;;;;;;14.00;7.43;;;7.30;41.30;;;;;;5036189;28;20031;-22
2022/03/06 07:59:12;;;;;;;15.90;8.35;;;7.40;41.40;;;;;;5036045;28;20029;-21
2022/03/06 08:01:39;;;;;;;12.30;6.50;;;7.40;41.30;;;;;;5035704;28;20462;-23
2022/03/06 08:04:04;;;;;;;13.15;6.68;;;7.50;41.80;;;;;;5035760;28;20027;-21
2022/03/06 08:06:30;;;;;;;15.48;7.75;;;7.60;41.70;;;;;;5035824;28;20104;-22
2022/03/06 08:08:56;;;;;;;13.70;6.90;;;7.60;41.40;;;;;;5033689;28;20477;-21
2022/03/06 08:11:22;;;;;;;16.95;8.50;;;7.70;41.30;;;;;;5035589;28;20087;-24
2022/03/06 08:13:48;;;;;;;13.82;7.10;;;7.80;39.90;;;;;;5035785;28;20033;-21
2022/03/06 08:16:14;;;;;;;13.98;7.28;;;7.90;40.60;;;;;;5035696;28;20492;-23
2022/03/06 08:18:40;;;;;;;15.63;8.20;;;7.90;40.80;;;;;;5035101;28;20384;-23
2022/03/06 08:21:06;;;;;;;13.23;7.20;;;8.00;38.50;;;;;;5035398;28;20112;-23
2022/03/06 08:23:32;;;;;;;12.90;6.72;;;8.10;39.10;;;;;;5035418;28;20026;-23
2022/03/06 08:25:58;;;;;;;13.43;6.85;;;8.20;39.80;;;;;;5035234;28;20036;-23
2022/03/06 08:28:24;;;;;;;14.55;7.40;;;8.40;39.40;;;;;;5035021;28;20022;-22
2022/03/06 08:30:49;;;;;;;12.57;6.95;;;8.60;38.20;;;;;;5035207;28;20056;-21
2022/03/06 08:33:15;;;;;;;13.13;6.88;;;8.90;38.10;;;;;;5035362;28;20080;-23
2022/03/06 08:35:42;;;;;;;11.88;6.80;;;9.10;38.60;;;;;;5035461;28;20111;-22
2022/03/06 08:38:08;;;;;;;14.13;7.90;;;9.40;38.00;;;;;;5035945;28;20021;-22
2022/03/06 08:40:34;;;;;;;13.43;7.10;;;9.60;37.80;;;;;;5033589;28;20042;-22
2022/03/06 08:42:59;;;;;;;16.13;7.95;;;9.80;37.10;;;;;;5034901;28;20022;-22
2022/03/06 08:45:26;;;;;;;14.10;7.53;;;10.00;37.00;;;;;;5035573;28;20049;-21
2022/03/06 08:47:52;;;;;;;12.55;6.90;;;10.20;36.70;;;;;;5034932;28;20087;-24
2022/03/06 08:50:17;;;;;;;12.32;6.85;;;10.40;36.20;;;;;;5033580;28;20040;-23
2022/03/06 08:52:43;;;;;;;10.55;6.55;;;10.60;36.40;;;;;;5035417;28;20116;-22
2022/03/06 08:55:10;;;;;;;12.75;6.75;;;10.80;35.20;;;;;;5034944;28;20087;-22
2022/03/06 08:57:36;;;;;;;10.98;6.18;;;11.00;35.50;;;;;;5035273;28;20057;-23
2022/03/06 09:00:07;;;;;;;12.90;6.70;;;11.20;35.40;;;;;;5034574;28;20033;-23
2022/03/06 09:02:33;;;;;;;13.77;6.68;;;11.40;35.00;;;;;;5034516;28;20524;-22
2022/03/06 09:04:59;;;;;;;13.90;7.53;;;11.60;34.70;;;;;;5034608;28;20030;-23
2022/03/06 09:07:25;;;;;;;10.45;5.68;;;11.80;34.30;;;;;;5033341;28;20032;-21
2022/03/06 09:09:51;;;;;;;13.05;6.95;;;11.90;34.00;;;;;;5033260;28;20060;-22
2022/03/06 09:12:19;;;;;;;11.27;6.15;;;12.20;33.90;;;;;;5034373;28;20371;-21
2022/03/06 09:14:46;;;;;;;11.15;6.13;;;12.40;33.70;;;;;;5034285;28;20503;-21
2022/03/06 09:17:11;;;;;;;13.25;7.03;;;12.50;33.20;;;;;;5034340;28;20033;-23
2022/03/06 09:19:38;;;;;;;10.43;6.18;;;12.70;33.00;;;;;;5034695;28;20385;-22
2022/03/06 09:22:04;;;;;;;13.20;6.93;;;12.90;33.30;;;;;;5033991;28;20049;-21
2022/03/06 09:24:31;;;;;;;12.20;6.53;;;13.10;32.80;;;;;;5033998;28;20030;-23
2022/03/06 09:26:57;;;;;;;12.48;6.43;;;13.30;32.40;;;;;;5034448;28;20053;-21
2022/03/06 09:29:23;;;;;;;13.10;7.25;;;13.50;32.30;;;;;;5034351;28;20045;-23
2022/03/06 09:31:49;;;;;;;12.80;6.57;;;13.60;32.20;;;;;;5034393;28;20057;-23
2022/03/06 09:34:15;;;;;;;10.60;5.72;;;13.80;32.20;;;;;;5034194;28;20026;-21
2022/03/06 09:36:41;;;;;;;13.45;7.28;;;13.90;32.10;;;;;;5033860;28;20469;-21
2022/03/06 09:39:07;;;;;;;12.25;6.82;;;14.00;30.90;;;;;;5034212;28;20053;-21
2022/03/06 09:41:38;;;;;;;11.05;6.70;;;14.20;30.90;;;;;;5034122;28;20079;-21
2022/03/06 09:44:10;;;;;;;12.13;6.90;;;14.40;31.30;;;;;;5033805;28;20030;-21
2022/03/06 09:46:37;;;;;;;10.20;5.95;;;14.50;31.00;;;;;;5033953;28;20034;-21
2022/03/06 09:49:05;;;;;;;11.75;6.63;;;14.60;31.20;;;;;;5034381;28;20062;-21
2022/03/06 09:51:40;;;;;;;10.57;5.82;;;14.80;31.30;;;;;;5034038;28;20022;-21
2022/03/06 09:54:11;;;;;;;12.30;6.55;;;15.00;30.80;;;;;;5034019;28;20033;-21
2022/03/06 09:56:38;;;;;;;9.05;5.47;;;15.20;30.90;;;;;;5034278;28;20018;-21
2022/03/06 09:59:05;;;;;;;8.52;4.55;;;15.40;31.10;;;;;;5033879;28;20128;-21
2022/03/06 10:01:32;;;;;;;8.93;5.20;;;15.60;31.00;;;;;;5033495;28;20049;-21
2022/03/06 10:04:18;;;;;;;10.80;5.82;;;15.70;29.90;;;;;;5033828;28;20104;-20
2022/03/06 10:06:57;;;;;;;12.75;7.40;;;15.90;29.90;;;;;;5033403;28;20053;-21
2022/03/06 10:09:23;;;;;;;11.48;6.57;;;16.00;29.30;;;;;;5033692;28;20032;-21
2022/03/06 10:11:51;;;;;;;10.00;5.68;;;16.20;29.20;;;;;;5033362;28;20384;-21
2022/03/06 10:14:37;;;;;;;8.43;4.70;;;16.30;29.60;;;;;;5033500;28;20022;-21
2022/03/06 10:17:15;;;;;;;10.57;6.03;;;16.50;27.70;;;;;;5033360;28;20053;-23
2022/03/06 10:19:59;;;;;;;7.35;4.32;;;16.70;29.10;;;;;;5033349;28;20039;-21
2022/03/06 10:22:30;;;;;;;8.07;4.97;;;16.90;29.00;;;;;;5033127;28;20040;-21
2022/03/06 10:25:06;;;;;;;9.35;5.57;;;17.20;29.00;;;;;;5033548;28;20018;-21
2022/03/06 10:27:57;;;;;;;11.25;6.35;;;17.40;29.30;;;;;;5033127;28;20370;-21
2022/03/06 10:30:39;;;;;;;10.40;6.22;;;17.60;27.40;;;;;;5032983;28;20039;-21
2022/03/06 10:33:19;;;;;;;12.20;6.38;;;17.60;27.30;;;;;;5033109;28;20030;-20
2022/03/06 10:35:47;;;;;;;10.00;5.88;;;17.70;27.50;;;;;;5033160;28;20025;-21
2022/03/06 10:38:31;;;;;;;10.05;6.13;;;17.70;28.10;;;;;;5033256;28;20029;-22
2022/03/06 10:41:18;;;;;;;7.97;4.72;;;17.80;27.90;;;;;;5033132;28;20075;-21
2022/03/06 10:43:44;;;;;;;8.80;5.05;;;18.00;28.60;;;;;;5032970;28;20029;-21
2022/03/06 10:46:18;;;;;;;10.77;5.88;;;18.20;28.70;;;;;;5033096;28;20017;-21
2022/03/06 10:48:58;;;;;;;9.45;5.80;;;18.40;28.60;;;;;;5032968;28;20508;-21
2022/03/06 10:51:26;;;;;;;13.30;7.55;;;18.60;27.60;;;;;;5032981;28;20040;-22
2022/03/06 10:53:54;;;;;;;10.95;6.28;;;18.90;27.70;;;;;;5033171;28;20083;-21
2022/03/06 10:56:21;;;;;;;13.25;7.90;;;19.00;27.80;;;;;;5032807;28;20105;-21
2022/03/06 10:58:48;;;;;;;12.38;6.85;;;19.10;27.80;;;;;;5033097;28;20093;-22
2022/03/06 11:01:15;;;;;;;11.35;6.80;;;19.20;27.80;;;;;;5033096;28;20412;-21
2022/03/06 11:03:42;;;;;;;11.57;6.65;;;19.30;27.00;;;;;;5033160;28;20065;-21
2022/03/06 11:06:10;;;;;;;8.60;5.22;;;19.40;27.00;;;;;;5032864;28;20378;-22
2022/03/06 11:08:38;;;;;;;8.70;5.22;;;19.50;27.60;;;;;;5033177;28;20026;-21
2022/03/06 11:11:07;;;;;;;8.98;5.18;;;19.60;27.70;;;;;;5033074;28;20049;-22
2022/03/06 11:13:33;;;;;;;10.13;5.75;;;19.90;27.50;;;;;;5032667;28;20536;-21
2022/03/06 11:16:01;;;;;;;9.45;5.55;;;20.00;26.60;;;;;;5031457;28;20080;-21
2022/03/06 11:18:29;;;;;;;9.70;5.82;;;20.20;26.70;;;;;;5032258;28;20080;-21
2022/03/06 11:20:58;;;;;;;9.93;6.55;;;20.30;26.60;;;;;;5032853;28;20416;-20
2022/03/06 11:23:44;;;;;;;12.30;7.70;;;20.40;26.90;;;;;;5032950;28;20033;-20
2022/03/06 11:26:10;;;;;;;11.32;6.68;;;20.50;24.80;;;;;;5032835;28;20026;-20
2022/03/06 11:29:13;;;;;;;8.88;5.72;;;20.50;25.70;;;;;;5032248;28;20048;-20
2022/03/06 11:31:49;;;;;;;11.17;6.70;;;20.60;23.00;;;;;;5033524;28;20017;-21
2022/03/06 11:34:26;;;;;;;13.07;8.30;;;20.70;25.40;;;;;;5032884;28;20256;-22
2022/03/06 11:36:55;;;;;;;10.00;6.25;;;20.80;25.40;;;;;;5031328;28;20040;-22
2022/03/06 11:39:30;;;;;;;8.90;5.57;;;20.90;26.10;;;;;;5032571;28;20030;-21
2022/03/06 11:42:08;;;;;;;10.20;6.20;;;21.00;25.60;;;;;;5032844;28;20034;-21
2022/03/06 11:44:36;;;;;;;9.57;5.93;;;21.10;25.70;;;;;;5035122;28;20033;-21
2022/03/06 11:47:38;;;;;;;9.55;5.88;;;21.20;25.80;;;;;;5036075;28;20075;-21
2022/03/06 11:50:06;;;;;;;8.57;5.18;;;21.20;23.90;;;;;;5035463;28;20040;-21
2022/03/06 11:52:35;;;;;;;11.98;7.05;;;21.30;25.50;;;;;;5035863;28;20072;-22
2022/03/06 11:55:22;;;;;;;11.15;7.05;;;21.40;25.40;;;;;;5035982;28;20080;-21
2022/03/06 11:57:50;;;;;;;10.02;6.60;;;21.50;25.30;;;;;;5035870;28;20025;-21
2022/03/06 12:00:23;;;;;;;9.00;5.85;;;21.70;25.00;;;;;;5035835;28;20025;-22
2022/03/06 12:02:54;;;;;;;9.02;5.82;;;21.90;25.10;;;;;;5036240;28;20029;-21
2022/03/06 12:05:21;;;;;;;8.95;5.85;;;22.00;25.00;;;;;;5035811;28;20030;-22
2022/03/06 12:07:50;;;;;;;9.68;5.93;;;22.20;24.90;;;;;;5036490;28;20389;-21
2022/03/06 12:10:17;;;;;;;9.95;6.63;;;22.40;24.70;;;;;;5036051;28;20025;-22
2022/03/06 12:12:56;;;;;;;9.93;6.65;;;22.60;24.40;;;;;;5035815;28;20021;-22
2022/03/06 12:15:28;;;;;;;10.07;6.32;;;22.60;23.90;;;;;;5035884;28;20112;-21
2022/03/06 12:18:01;;;;;;;10.75;6.70;;;22.60;24.00;;;;;;5035250;28;20080;-21
2022/03/06 12:20:29;;;;;;;9.88;5.65;;;22.60;23.90;;;;;;5035506;28;20037;-21
2022/03/06 12:23:00;;;;;;;9.50;6.25;;;22.60;24.00;;;;;;5035722;28;20026;-21
2022/03/06 12:25:32;;;;;;;10.38;7.00;;;22.80;24.40;;;;;;5035707;28;20014;-21
2022/03/06 12:28:01;;;;;;;8.43;5.43;;;22.90;24.00;;;;;;5035581;28;20037;-21
2022/03/06 12:30:28;;;;;;;8.52;5.70;;;23.10;24.20;;;;;;5035028;28;20044;-21
2022/03/06 12:32:54;;;;;;;9.25;5.90;;;23.40;24.20;;;;;;5036158;28;20021;-21
2022/03/06 12:35:25;;;;;;;10.48;6.60;;;23.50;23.70;;;;;;5035545;28;20018;-21
2022/03/06 12:37:59;;;;;;;10.02;6.22;;;23.60;23.40;;;;;;5035541;28;20068;-21
2022/03/06 12:40:28;;;;;;;10.50;5.93;;;23.70;23.40;;;;;;5035084;28;20025;-21
2022/03/06 12:43:04;;;;;;;8.75;5.47;;;23.80;23.40;;;;;;5035205;28;20094;-21
2022/03/06 12:45:32;;;;;;;7.72;5.10;;;24.00;23.60;;;;;;5035018;28;20037;-21
2022/03/06 12:47:59;;;;;;;8.55;5.60;;;24.10;23.60;;;;;;5034966;28;20025;-21
2022/03/06 12:50:25;;;;;;;10.40;6.53;;;24.30;23.10;;;;;;5034783;28;20020;-21